Аэропорт: Оренбург-Центральный. Оренбург

ICAO: UWOO

METAR:
2021-04-21 21:00:00
UWOO 212100Z 15004MPS CAVOK 07/M04 Q1031 R08/CLRD65 NOSIG RMK QFE762/1016
METAR:
2021-04-21 19:50:00
TAF UWOO 211950Z 2121/2221 15007G14MPS 6000 SCT020CB TX10/2210Z TN04/2203Z TEMPO 2121/2221 17009G15MPS 3100 -SHRA BKN016CB